createdAt,value
2023-02-01T00:01:14.973Z,5.40
2023-02-01T00:03:42.679Z,5.70
2023-02-01T00:06:10.625Z,5.63
2023-02-01T00:08:38.327Z,5.30
2023-02-01T00:11:07.969Z,5.47
2023-02-01T00:13:39.527Z,5.27
2023-02-01T00:16:09.416Z,5.27
2023-02-01T00:18:37.512Z,4.70
2023-02-01T00:21:05.773Z,4.53
2023-02-01T00:23:35.362Z,4.40
2023-02-01T00:26:03.955Z,4.03
2023-02-01T00:28:31.906Z,4.07
2023-02-01T00:31:01.300Z,4.30
2023-02-01T00:33:29.575Z,3.70
2023-02-01T00:35:59.671Z,3.53
2023-02-01T00:38:27.964Z,3.50
2023-02-01T00:40:55.810Z,3.90
2023-02-01T00:43:23.554Z,3.80
2023-02-01T00:45:51.239Z,3.80
2023-02-01T00:48:20.860Z,3.57
2023-02-01T00:50:48.602Z,3.47
2023-02-01T00:53:16.320Z,3.67
2023-02-01T00:55:47.224Z,3.57
2023-02-01T00:58:14.934Z,3.93
2023-02-01T01:00:42.711Z,4.00
2023-02-01T01:03:19.493Z,3.73
2023-02-01T01:05:49.869Z,4.17
2023-02-01T01:08:18.503Z,3.93
2023-02-01T01:10:46.216Z,4.47
2023-02-01T01:13:13.947Z,4.70
2023-02-01T01:15:42.298Z,4.40
2023-02-01T01:18:10.882Z,4.87
2023-02-01T01:20:40.100Z,4.80
2023-02-01T01:23:10.167Z,4.63
2023-02-01T01:25:40.129Z,4.27
2023-02-01T01:28:08.671Z,4.53
2023-02-01T01:30:36.897Z,4.40
2023-02-01T01:33:04.972Z,4.80
2023-02-01T01:35:33.494Z,5.47
2023-02-01T01:38:02.111Z,5.10
2023-02-01T01:40:32.317Z,4.90
2023-02-01T01:43:00.360Z,5.40
2023-02-01T01:45:29.807Z,5.57
2023-02-01T01:48:00.070Z,5.03
2023-02-01T01:50:31.442Z,5.63
2023-02-01T01:53:03.411Z,5.70
2023-02-01T01:55:35.927Z,5.13
2023-02-01T01:58:06.742Z,5.50
2023-02-01T02:00:35.306Z,5.00
2023-02-01T02:03:10.866Z,5.10
2023-02-01T02:05:38.675Z,4.87
2023-02-01T02:08:06.532Z,5.67
2023-02-01T02:10:53.412Z,5.40
2023-02-01T02:13:21.473Z,5.57
2023-02-01T02:16:02.654Z,5.63
2023-02-01T02:18:40.453Z,5.40
2023-02-01T02:21:19.882Z,5.50
2023-02-01T02:24:33.343Z,5.50
2023-02-01T02:27:27.716Z,5.40
2023-02-01T02:30:39.687Z,5.27
2023-02-01T02:33:52.934Z,5.77
2023-02-01T02:36:34.253Z,5.17
2023-02-01T02:39:09.446Z,5.10
2023-02-01T02:42:07.146Z,5.77
2023-02-01T02:44:59.593Z,5.33
2023-02-01T02:47:34.824Z,5.10
2023-02-01T02:50:29.902Z,4.80
2023-02-01T02:53:22.744Z,4.20
2023-02-01T02:55:53.207Z,3.83
2023-02-01T02:58:39.555Z,3.43
2023-02-01T03:01:24.955Z,3.83
2023-02-01T03:04:09.799Z,3.50
2023-02-01T03:06:40.332Z,3.40
2023-02-01T03:09:15.756Z,3.70
2023-02-01T03:12:05.201Z,3.83
2023-02-01T03:14:37.237Z,4.10
2023-02-01T03:17:10.785Z,4.30
2023-02-01T03:19:44.691Z,3.80
2023-02-01T03:22:17.551Z,3.90
2023-02-01T03:24:48.268Z,3.80
2023-02-01T03:27:20.658Z,3.83
2023-02-01T03:29:53.439Z,3.77
2023-02-01T03:32:21.253Z,3.90
2023-02-01T03:34:49.854Z,3.70
2023-02-01T03:37:26.478Z,4.03
2023-02-01T03:39:59.857Z,3.43
2023-02-01T03:42:33.386Z,3.60
2023-02-01T03:45:07.791Z,3.70
2023-02-01T03:47:39.929Z,3.80
2023-02-01T03:50:10.556Z,4.33
2023-02-01T03:52:44.438Z,4.80
2023-02-01T03:55:14.171Z,4.40
2023-02-01T03:57:47.429Z,4.90
2023-02-01T04:00:20.266Z,4.73
2023-02-01T04:02:48.290Z,4.43
2023-02-01T04:05:16.406Z,4.50
2023-02-01T04:07:45.686Z,4.47
2023-02-01T04:10:14.299Z,4.53
2023-02-01T04:12:43.266Z,4.50
2023-02-01T04:15:11.803Z,4.70
2023-02-01T04:17:39.526Z,4.50
2023-02-01T04:20:08.068Z,4.00
2023-02-01T04:22:35.781Z,3.63
2023-02-01T04:25:06.664Z,3.90
2023-02-01T04:27:34.399Z,3.80
2023-02-01T04:30:02.215Z,4.23
2023-02-01T04:32:30.038Z,3.70
2023-02-01T04:34:57.727Z,3.70
2023-02-01T04:37:25.516Z,3.77
2023-02-01T04:39:53.222Z,3.63
2023-02-01T04:42:22.344Z,4.10
2023-02-01T04:44:50.134Z,4.50
2023-02-01T04:47:17.882Z,3.77
2023-02-01T04:49:45.576Z,4.10
2023-02-01T04:52:13.371Z,4.20
2023-02-01T04:54:41.097Z,4.23
2023-02-01T04:57:08.894Z,4.07
2023-02-01T04:59:38.100Z,4.07
2023-02-01T05:02:05.825Z,4.63
2023-02-01T05:04:33.589Z,4.43
2023-02-01T05:07:01.326Z,4.70
2023-02-01T05:09:29.047Z,4.73
2023-02-01T05:12:14.387Z,4.87
2023-02-01T05:14:43.600Z,4.37
2023-02-01T05:17:11.329Z,4.57
2023-02-01T05:19:39.059Z,5.07
2023-02-01T05:22:06.896Z,4.27
2023-02-01T05:24:34.630Z,4.27
2023-02-01T05:27:02.323Z,4.33
2023-02-01T05:29:30.089Z,4.80
2023-02-01T05:32:05.205Z,4.07
2023-02-01T05:34:39.576Z,4.53
2023-02-01T05:37:07.315Z,4.40
2023-02-01T05:39:35.438Z,4.67
2023-02-01T05:42:03.170Z,4.30
2023-02-01T05:44:30.940Z,4.03
2023-02-01T05:47:00.007Z,4.30
2023-02-01T05:49:27.703Z,4.03
2023-02-01T05:51:55.399Z,4.17
2023-02-01T05:54:23.132Z,3.93
2023-02-01T05:56:50.849Z,4.43
2023-02-01T05:59:18.627Z,4.30
2023-02-01T06:01:46.296Z,3.97
2023-02-01T06:04:15.373Z,4.27
2023-02-01T06:06:43.066Z,3.53
2023-02-01T06:09:10.877Z,3.60
2023-02-01T06:11:38.573Z,3.43
2023-02-01T06:14:08.842Z,3.47
2023-02-01T06:16:36.649Z,3.33
2023-02-01T06:19:04.371Z,3.60
2023-02-01T06:21:34.484Z,3.40
2023-02-01T06:24:02.197Z,3.40
2023-02-01T06:26:30.388Z,2.67
2023-02-01T06:28:58.214Z,2.90
2023-02-01T06:31:26.230Z,2.70
2023-02-01T06:33:54.515Z,2.43
2023-02-01T06:36:22.792Z,2.47
2023-02-01T06:38:52.129Z,2.03
2023-02-01T06:41:21.516Z,2.17
2023-02-01T06:43:49.284Z,2.10
2023-02-01T06:46:17.364Z,2.10
2023-02-01T06:48:46.956Z,1.70
2023-02-01T06:51:21.920Z,1.47
2023-02-01T06:53:51.118Z,1.93
2023-02-01T06:56:18.989Z,1.90
2023-02-01T06:58:46.931Z,1.70
2023-02-01T07:01:15.316Z,1.70
2023-02-01T07:03:43.332Z,1.17
2023-02-01T07:06:11.475Z,1.50
2023-02-01T07:08:40.196Z,1.80
2023-02-01T07:11:11.188Z,1.63
2023-02-01T07:13:38.943Z,1.60
2023-02-01T07:16:10.636Z,1.33
2023-02-01T07:18:38.408Z,1.90
2023-02-01T07:21:06.242Z,2.47
2023-02-01T07:23:33.974Z,3.03
2023-02-01T07:26:04.129Z,2.97
2023-02-01T07:28:35.061Z,3.03
2023-02-01T07:31:06.270Z,5.07
2023-02-01T07:33:34.415Z,5.70
2023-02-01T07:36:04.023Z,5.03
2023-02-01T07:38:31.985Z,4.77
2023-02-01T07:41:00.660Z,4.60
2023-02-01T07:43:28.757Z,2.83
2023-02-01T07:45:58.680Z,3.10
2023-02-01T07:48:28.265Z,2.50
2023-02-01T07:51:00.675Z,2.73
2023-02-01T07:53:28.809Z,2.70
2023-02-01T07:55:57.851Z,2.30
2023-02-01T07:58:26.061Z,2.47
2023-02-01T08:01:12.945Z,2.20
2023-02-01T08:03:42.129Z,2.20
2023-02-01T08:06:09.845Z,2.50
2023-02-01T08:08:37.702Z,2.50
2023-02-01T08:11:07.892Z,2.70
2023-02-01T08:13:36.297Z,2.80
2023-02-01T08:16:06.170Z,2.93
2023-02-01T08:18:34.507Z,3.10
2023-02-01T08:21:07.436Z,3.77
2023-02-01T08:23:35.548Z,3.60
2023-02-01T08:26:08.786Z,3.53
2023-02-01T08:28:37.980Z,4.30
2023-02-01T08:31:07.714Z,3.97
2023-02-01T08:33:36.690Z,4.37
2023-02-01T08:36:07.524Z,4.00
2023-02-01T08:38:36.981Z,4.13
2023-02-01T08:41:10.812Z,4.03
2023-02-01T08:43:39.229Z,3.73
2023-02-01T08:46:08.083Z,4.13
2023-02-01T08:48:36.705Z,4.67
2023-02-01T08:51:06.956Z,4.10
2023-02-01T08:53:34.935Z,3.90
2023-02-01T08:56:02.688Z,3.70
2023-02-01T08:58:30.494Z,3.93
2023-02-01T09:00:58.223Z,3.40
2023-02-01T09:03:26.199Z,3.37
2023-02-01T09:05:54.521Z,3.10
2023-02-01T09:08:23.686Z,3.50
2023-02-01T09:10:51.534Z,2.93
2023-02-01T09:13:19.248Z,3.27
2023-02-01T09:15:47.042Z,3.60
2023-02-01T09:18:14.797Z,4.13
2023-02-01T09:20:42.488Z,3.40
2023-02-01T09:23:10.321Z,3.57
2023-02-01T09:25:40.527Z,3.23
2023-02-01T09:28:10.026Z,2.87
2023-02-01T09:30:38.662Z,3.30
2023-02-01T09:33:06.906Z,3.40
2023-02-01T09:35:34.709Z,3.47
2023-02-01T09:38:02.442Z,3.30
2023-02-01T09:40:30.315Z,3.00
2023-02-01T09:43:15.223Z,3.17
2023-02-01T09:45:51.168Z,2.93
2023-02-01T09:48:23.122Z,3.00
2023-02-01T09:50:55.251Z,3.23
2023-02-01T09:53:27.164Z,3.20
2023-02-01T09:56:00.299Z,3.13
2023-02-01T09:58:34.472Z,2.90
2023-02-01T10:01:04.003Z,2.93
2023-02-01T10:03:34.875Z,3.80
2023-02-01T10:06:16.073Z,3.63
2023-02-01T10:09:09.047Z,3.43
2023-02-01T10:11:51.694Z,3.67
2023-02-01T10:14:45.802Z,3.20
2023-02-01T10:17:22.553Z,3.67
2023-02-01T10:20:03.105Z,3.20
2023-02-01T10:23:05.243Z,3.03
2023-02-01T10:25:38.423Z,2.90
2023-02-01T10:28:06.330Z,3.53
2023-02-01T10:30:42.708Z,2.67
2023-02-01T10:33:18.290Z,2.20
2023-02-01T10:35:47.914Z,2.50
2023-02-01T10:38:22.444Z,2.30
2023-02-01T10:40:50.464Z,2.17
2023-02-01T10:43:18.193Z,1.90
2023-02-01T10:45:47.250Z,1.70
2023-02-01T10:48:16.046Z,1.97
2023-02-01T10:50:53.604Z,2.03
2023-02-01T10:53:26.537Z,2.57
2023-02-01T10:55:55.117Z,2.07
2023-02-01T10:58:29.681Z,1.90
2023-02-01T11:01:03.856Z,2.00
2023-02-01T11:03:38.464Z,1.90
2023-02-01T11:06:13.999Z,2.27
2023-02-01T11:08:47.341Z,2.00
2023-02-01T11:11:15.098Z,2.07
2023-02-01T11:13:43.665Z,2.17
2023-02-01T11:16:16.853Z,2.70
2023-02-01T11:18:44.775Z,2.73
2023-02-01T11:21:13.469Z,2.50
2023-02-01T11:23:44.810Z,3.43
2023-02-01T11:26:16.283Z,3.50
2023-02-01T11:28:53.543Z,3.47
2023-02-01T11:31:24.280Z,2.70
2023-02-01T11:33:56.098Z,2.63
2023-02-01T11:36:27.651Z,3.20
2023-02-01T11:39:10.408Z,2.63
2023-02-01T11:41:45.020Z,2.83
2023-02-01T11:44:24.131Z,3.00
2023-02-01T11:46:53.345Z,2.83
2023-02-01T11:49:24.953Z,3.20
2023-02-01T11:52:05.393Z,2.67
2023-02-01T11:54:47.678Z,2.80
2023-02-01T11:57:32.247Z,3.10
2023-02-01T12:00:10.923Z,2.53
2023-02-01T12:02:59.496Z,2.70
2023-02-01T12:05:37.134Z,3.13
2023-02-01T12:08:24.802Z,2.80
2023-02-01T12:11:05.651Z,3.20
2023-02-01T12:13:46.288Z,2.80
2023-02-01T12:16:24.453Z,2.70
2023-02-01T12:19:17.489Z,3.30
2023-02-01T12:21:59.260Z,2.90
2023-02-01T12:24:47.143Z,2.63
2023-02-01T12:27:43.555Z,2.60
2023-02-01T12:30:44.282Z,2.60
2023-02-01T12:33:23.951Z,2.90
2023-02-01T12:36:15.960Z,2.83
2023-02-01T12:39:05.026Z,2.50
2023-02-01T12:41:47.895Z,2.67
2023-02-01T12:44:27.603Z,2.63
2023-02-01T12:47:00.116Z,2.53
2023-02-01T12:49:37.439Z,3.17
2023-02-01T12:52:12.823Z,3.40
2023-02-01T12:54:48.064Z,2.63
2023-02-01T12:57:19.991Z,3.33
2023-02-01T12:59:53.662Z,2.53
2023-02-01T13:02:30.501Z,2.60
2023-02-01T13:05:04.339Z,2.47
2023-02-01T13:07:41.647Z,2.87
2023-02-01T13:10:18.830Z,2.60
2023-02-01T13:12:54.149Z,2.90
2023-02-01T13:15:27.475Z,2.40
2023-02-01T13:17:59.861Z,2.47
2023-02-01T13:20:33.439Z,2.80
2023-02-01T13:23:06.880Z,3.03
2023-02-01T13:25:40.028Z,2.53
2023-02-01T13:28:14.365Z,2.40
2023-02-01T13:31:02.272Z,2.77
2023-02-01T13:33:53.020Z,2.80
2023-02-01T13:36:36.903Z,2.50
2023-02-01T13:39:37.590Z,2.33
2023-02-01T13:42:14.958Z,2.50
2023-02-01T13:44:47.622Z,2.60
2023-02-01T13:47:24.597Z,2.77
2023-02-01T13:49:54.611Z,2.37
2023-02-01T13:52:30.516Z,2.53
2023-02-01T13:55:26.708Z,2.60
2023-02-01T13:58:03.650Z,3.60
2023-02-01T14:00:35.872Z,2.37
2023-02-01T14:03:22.241Z,3.10
2023-02-01T14:06:27.340Z,2.77
2023-02-01T14:09:18.197Z,3.40
2023-02-01T14:11:50.609Z,3.80
2023-02-01T14:14:42.820Z,3.00
2023-02-01T14:17:34.334Z,3.20
2023-02-01T14:20:46.336Z,3.17
2023-02-01T14:23:18.118Z,2.87
2023-02-01T14:25:49.515Z,2.80
2023-02-01T14:28:27.463Z,3.07
2023-02-01T14:30:57.114Z,2.93
2023-02-01T14:33:28.005Z,3.27
2023-02-01T14:36:07.910Z,2.57
2023-02-01T14:38:38.078Z,3.10
2023-02-01T14:41:32.228Z,3.37
2023-02-01T14:44:29.674Z,3.03
2023-02-01T14:47:33.007Z,3.13
2023-02-01T14:50:19.419Z,3.27
2023-02-01T14:52:49.607Z,2.73
2023-02-01T14:55:23.182Z,2.53
2023-02-01T14:57:54.739Z,2.97
2023-02-01T15:00:29.225Z,3.23
2023-02-01T15:03:17.707Z,2.50
2023-02-01T15:05:45.613Z,3.23
2023-02-01T15:08:21.631Z,2.80
2023-02-01T15:10:52.751Z,3.13
2023-02-01T15:13:23.244Z,2.67
2023-02-01T15:16:12.647Z,3.43
2023-02-01T15:18:41.469Z,3.90
2023-02-01T15:21:28.482Z,4.90
2023-02-01T15:24:13.725Z,4.07
2023-02-01T15:26:41.519Z,4.30
2023-02-01T15:29:13.951Z,3.90
2023-02-01T15:31:45.602Z,3.47
2023-02-01T15:34:14.390Z,3.57
2023-02-01T15:36:56.626Z,3.10
2023-02-01T15:39:31.808Z,3.00
2023-02-01T15:42:03.041Z,3.30
2023-02-01T15:44:35.412Z,3.10
2023-02-01T15:47:15.211Z,2.57
2023-02-01T15:49:45.323Z,2.60
2023-02-01T15:52:23.569Z,3.20
2023-02-01T15:54:54.281Z,3.40
2023-02-01T15:57:31.308Z,3.37
2023-02-01T16:00:00.492Z,3.60
2023-02-01T16:02:36.497Z,3.20
2023-02-01T16:05:06.085Z,3.50
2023-02-01T16:07:36.081Z,3.67
2023-02-01T16:10:25.182Z,3.57
2023-02-01T16:12:55.303Z,3.60
2023-02-01T16:15:23.279Z,3.47
2023-02-01T16:17:52.617Z,3.87
2023-02-01T16:20:20.506Z,3.97
2023-02-01T16:22:48.227Z,3.40
2023-02-01T16:25:16.198Z,3.50
2023-02-01T16:27:43.973Z,3.50
2023-02-01T16:30:12.569Z,4.00
2023-02-01T16:32:40.632Z,3.90
2023-02-01T16:35:20.039Z,3.33
2023-02-01T16:37:47.856Z,2.93
2023-02-01T16:40:16.494Z,2.77
2023-02-01T16:42:44.212Z,3.03
2023-02-01T16:45:12.337Z,2.77
2023-02-01T16:47:44.762Z,2.60
2023-02-01T16:50:23.374Z,2.67
2023-02-01T16:52:51.975Z,3.10
2023-02-01T16:55:22.708Z,2.87
2023-02-01T16:57:50.773Z,2.10
2023-02-01T17:00:25.584Z,2.53
2023-02-01T17:02:54.296Z,2.67
2023-02-01T17:05:24.047Z,2.83
2023-02-01T17:07:53.190Z,3.20
2023-02-01T17:10:34.567Z,3.10
2023-02-01T17:13:02.957Z,3.57
2023-02-01T17:15:36.689Z,3.00
2023-02-01T17:18:05.306Z,3.20
2023-02-01T17:20:34.498Z,2.63
2023-02-01T17:23:03.319Z,3.10
2023-02-01T17:25:32.820Z,2.47
2023-02-01T17:28:00.766Z,3.20
2023-02-01T17:30:29.274Z,3.30
2023-02-01T17:32:57.110Z,2.47
2023-02-01T17:35:29.682Z,3.00
2023-02-01T17:40:35.072Z,2.90
2023-02-01T17:43:02.895Z,2.67
2023-02-01T17:45:37.592Z,2.93
2023-02-01T17:48:06.677Z,2.60
2023-02-01T17:50:37.850Z,2.70
2023-02-01T17:53:09.728Z,4.33
2023-02-01T17:55:42.530Z,4.70
2023-02-01T17:58:12.790Z,5.90
2023-02-01T18:00:41.386Z,3.10
2023-02-01T18:03:26.818Z,2.60
2023-02-01T18:05:56.479Z,3.00
2023-02-01T18:08:26.248Z,2.80
2023-02-01T18:10:59.777Z,2.50
2023-02-01T18:13:28.469Z,3.40
2023-02-01T18:15:56.861Z,3.27
2023-02-01T18:18:24.714Z,2.70
2023-02-01T18:20:53.138Z,3.00
2023-02-01T18:23:22.981Z,2.83
2023-02-01T18:25:52.527Z,3.00
2023-02-01T18:28:21.827Z,2.60
2023-02-01T18:30:51.882Z,3.33
2023-02-01T18:33:22.065Z,3.70
2023-02-01T18:35:50.432Z,2.83
2023-02-01T18:38:18.358Z,2.70
2023-02-01T18:40:51.922Z,3.07
2023-02-01T18:43:21.702Z,3.03
2023-02-01T18:45:49.856Z,3.17
2023-02-01T18:48:21.299Z,3.00
2023-02-01T18:50:51.922Z,3.23
2023-02-01T18:53:23.932Z,2.93
2023-02-01T18:55:52.307Z,3.40
2023-02-01T18:58:26.348Z,2.90
2023-02-01T19:00:55.481Z,2.57
2023-02-01T19:03:26.782Z,2.80
2023-02-01T19:05:56.329Z,2.50
2023-02-01T19:08:25.847Z,2.30
2023-02-01T19:10:54.116Z,2.60
2023-02-01T19:13:25.883Z,2.87
2023-02-01T19:15:54.982Z,2.73
2023-02-01T19:18:22.919Z,3.00
2023-02-01T19:20:54.950Z,3.10
2023-02-01T19:23:23.394Z,3.73
2023-02-01T19:25:51.257Z,3.60
2023-02-01T19:28:19.102Z,4.00
2023-02-01T19:30:48.517Z,3.60
2023-02-01T19:33:17.110Z,2.77
2023-02-01T19:35:44.948Z,3.20
2023-02-01T19:38:12.825Z,3.30
2023-02-01T19:40:41.962Z,3.00
2023-02-01T19:43:09.833Z,2.80
2023-02-01T19:45:37.742Z,3.40
2023-02-01T19:48:07.814Z,2.70
2023-02-01T19:50:35.883Z,3.20
2023-02-01T19:53:03.796Z,2.57
2023-02-01T19:55:32.150Z,2.87
2023-02-01T19:58:02.333Z,3.10
2023-02-01T20:00:29.678Z,2.83
2023-02-01T20:02:58.417Z,3.10
2023-02-01T20:05:27.742Z,3.23
2023-02-01T20:07:55.600Z,2.90
2023-02-01T20:10:23.485Z,3.00
2023-02-01T20:12:51.437Z,3.20
2023-02-01T20:15:19.341Z,2.67
2023-02-01T20:17:47.184Z,3.23
2023-02-01T20:20:15.476Z,3.30
2023-02-01T20:22:45.319Z,2.93
2023-02-01T20:25:13.275Z,3.03
2023-02-01T20:27:42.009Z,2.90
2023-02-01T20:30:11.204Z,2.93
2023-02-01T20:32:39.052Z,3.37
2023-02-01T20:35:07.744Z,3.30
2023-02-01T20:37:37.754Z,3.23
2023-02-01T20:40:08.081Z,2.90
2023-02-01T20:42:36.004Z,3.40
2023-02-01T20:45:04.392Z,3.20
2023-02-01T20:47:32.328Z,3.17
2023-02-01T20:50:00.182Z,2.93
2023-02-01T20:52:28.066Z,2.97
2023-02-01T20:54:55.909Z,3.73
2023-02-01T20:57:25.307Z,3.43
2023-02-01T20:59:53.543Z,3.20
2023-02-01T21:02:21.527Z,3.60
2023-02-01T21:04:49.424Z,3.40
2023-02-01T21:07:17.283Z,2.67
2023-02-01T21:09:45.188Z,3.30
2023-02-01T21:12:13.042Z,3.43
2023-02-01T21:14:42.281Z,3.10
2023-02-01T21:17:10.126Z,3.20
2023-02-01T21:19:43.821Z,3.20
2023-02-01T21:22:12.247Z,3.20
2023-02-01T21:24:41.738Z,3.20
2023-02-01T21:27:09.903Z,3.30
2023-02-01T21:29:38.248Z,2.80
2023-02-01T21:32:08.698Z,2.60
2023-02-01T21:34:36.868Z,2.87
2023-02-01T21:37:04.931Z,2.80
2023-02-01T21:39:32.835Z,2.50
2023-02-01T21:42:17.559Z,3.60
2023-02-01T21:44:47.443Z,2.90
2023-02-01T21:47:18.363Z,3.40
2023-02-01T21:49:46.768Z,2.50
2023-02-01T21:52:15.921Z,2.70
2023-02-01T21:54:43.943Z,3.10
2023-02-01T21:57:12.948Z,2.67
2023-02-01T21:59:41.366Z,2.83
2023-02-01T22:02:13.461Z,2.87
2023-02-01T22:04:42.921Z,3.03
2023-02-01T22:07:11.415Z,3.00
2023-02-01T22:09:39.307Z,3.20
2023-02-01T22:12:08.437Z,2.70
2023-02-01T22:14:36.321Z,3.33
2023-02-01T22:17:04.637Z,3.00
2023-02-01T22:19:32.522Z,3.17
2023-02-01T22:22:01.789Z,2.97
2023-02-01T22:24:29.809Z,3.40
2023-02-01T22:27:13.473Z,2.97
2023-02-01T22:29:42.949Z,3.20
2023-02-01T22:32:12.145Z,2.90
2023-02-01T22:34:40.325Z,2.80
2023-02-01T22:37:11.071Z,2.70
2023-02-01T22:39:39.713Z,3.07
2023-02-01T22:42:07.618Z,2.80
2023-02-01T22:44:35.597Z,3.23
2023-02-01T22:47:03.545Z,2.80
2023-02-01T22:49:31.439Z,3.27
2023-02-01T22:51:59.351Z,2.90
2023-02-01T22:54:28.640Z,3.20
2023-02-01T22:56:56.505Z,3.17
2023-02-01T22:59:24.541Z,3.50
2023-02-01T23:01:52.460Z,2.90
2023-02-01T23:04:21.465Z,3.30
2023-02-01T23:06:50.972Z,3.40
2023-02-01T23:09:22.559Z,3.63
2023-02-01T23:11:52.781Z,3.70
2023-02-01T23:14:20.879Z,3.20
2023-02-01T23:16:50.687Z,3.10
2023-02-01T23:19:20.465Z,3.10
2023-02-01T23:21:48.652Z,3.23
2023-02-01T23:24:16.571Z,3.50
2023-02-01T23:26:44.591Z,3.07
2023-02-01T23:29:18.590Z,2.93
2023-02-01T23:31:46.754Z,3.00
2023-02-01T23:34:14.725Z,3.43
2023-02-01T23:36:42.717Z,2.90
2023-02-01T23:39:10.618Z,2.90
2023-02-01T23:41:38.479Z,3.50
2023-02-01T23:44:06.763Z,3.37
2023-02-01T23:46:38.723Z,3.00
2023-02-01T23:49:09.010Z,3.00
2023-02-01T23:51:37.287Z,2.97
2023-02-01T23:54:05.508Z,3.30
2023-02-01T23:56:35.147Z,2.70
2023-02-01T23:59:04.375Z,3.27
